createdAt,value
2017-08-07T00:00:58.805Z,1008.6
2017-08-07T00:01:59.551Z,1008.6
2017-08-07T00:03:00.299Z,1008.5
2017-08-07T00:04:01.072Z,1008.5
2017-08-07T00:05:01.878Z,1008.5
2017-08-07T00:06:03.030Z,1008.5
2017-08-07T00:07:03.767Z,1008.5
2017-08-07T00:08:04.570Z,1008.5
2017-08-07T00:09:05.313Z,1008.5
2017-08-07T00:10:06.112Z,1008.5
2017-08-07T00:11:07.052Z,1008.5
2017-08-07T00:12:07.859Z,1008.5
2017-08-07T00:13:08.600Z,1008.5
2017-08-07T00:14:09.404Z,1008.5
2017-08-07T00:15:10.132Z,1008.5
2017-08-07T00:16:10.957Z,1008.5
2017-08-07T00:17:11.746Z,1008.5
2017-08-07T00:18:12.867Z,1008.5
2017-08-07T00:19:13.660Z,1008.5
2017-08-07T00:20:14.403Z,1008.5
2017-08-07T00:21:15.210Z,1008.5
2017-08-07T00:22:15.944Z,1008.5
2017-08-07T00:23:16.755Z,1008.4
2017-08-07T00:24:17.583Z,1008.4
2017-08-07T00:25:18.310Z,1008.4
2017-08-07T00:26:19.044Z,1008.4
2017-08-07T00:27:19.850Z,1008.4
2017-08-07T00:28:20.946Z,1008.4
2017-08-07T00:29:21.768Z,1008.5
2017-08-07T00:30:22.591Z,1008.4
2017-08-07T00:31:23.388Z,1008.5
2017-08-07T00:32:24.141Z,1008.5
2017-08-07T00:33:25.075Z,1008.5
2017-08-07T00:34:25.812Z,1008.4
2017-08-07T00:35:26.542Z,1008.5
2017-08-07T00:36:27.279Z,1008.5
2017-08-07T00:37:28.010Z,1008.5
2017-08-07T00:38:29.015Z,1008.5
2017-08-07T00:39:29.743Z,1008.5
2017-08-07T00:40:30.491Z,1008.5
2017-08-07T00:41:31.312Z,1008.5
2017-08-07T00:42:32.055Z,1008.5
2017-08-07T00:43:33.126Z,1008.5
2017-08-07T00:44:33.879Z,1008.5
2017-08-07T00:45:34.614Z,1008.5
2017-08-07T00:46:35.421Z,1008.5
2017-08-07T00:47:36.241Z,1008.5
2017-08-07T00:48:37.211Z,1008.5
2017-08-07T00:49:38.030Z,1008.5
2017-08-07T00:50:38.771Z,1008.5
2017-08-07T00:51:39.516Z,1008.5
2017-08-07T00:52:40.251Z,1008.5
2017-08-07T00:53:40.992Z,1008.4
2017-08-07T00:54:41.727Z,1008.4
2017-08-07T00:55:42.470Z,1008.5
2017-08-07T00:56:43.622Z,1008.4
2017-08-07T00:57:44.412Z,1008.4
2017-08-07T00:58:45.229Z,1008.4
2017-08-07T00:59:45.965Z,1008.4
2017-08-07T01:00:46.692Z,1008.4
2017-08-07T01:01:47.724Z,1008.4
2017-08-07T01:02:48.532Z,1008.4
2017-08-07T01:03:49.360Z,1008.4
2017-08-07T01:04:50.115Z,1008.5
2017-08-07T01:05:50.850Z,1008.4
2017-08-07T01:06:51.587Z,1008.5
2017-08-07T01:07:52.727Z,1008.4
2017-08-07T01:08:53.469Z,1008.4
2017-08-07T01:09:54.211Z,1008.4
2017-08-07T01:10:54.950Z,1008.4
2017-08-07T01:11:55.675Z,1008.4
2017-08-07T01:12:56.861Z,1008.4
2017-08-07T01:13:57.661Z,1008.4
2017-08-07T01:14:58.472Z,1008.4
2017-08-07T01:15:59.207Z,1008.4
2017-08-07T01:16:59.950Z,1008.3
2017-08-07T01:18:00.973Z,1008.3
2017-08-07T01:19:01.714Z,1008.3
2017-08-07T01:20:02.451Z,1008.3
2017-08-07T01:21:03.255Z,1008.3
2017-08-07T01:22:04.073Z,1008.3
2017-08-07T01:23:05.191Z,1008.3
2017-08-07T01:24:05.928Z,1008.3
2017-08-07T01:25:06.722Z,1008.3
2017-08-07T01:26:07.443Z,1008.3
2017-08-07T01:27:08.174Z,1008.3
2017-08-07T01:28:09.215Z,1008.3
2017-08-07T01:29:10.020Z,1008.2
2017-08-07T01:30:10.761Z,1008.2
2017-08-07T01:31:11.498Z,1008.2
2017-08-07T01:32:12.240Z,1008.2
2017-08-07T01:33:13.180Z,1008.1
2017-08-07T01:34:13.921Z,1008.2
2017-08-07T01:35:14.659Z,1008.2
2017-08-07T01:36:15.394Z,1008.1
2017-08-07T01:37:16.123Z,1008.1
2017-08-07T01:38:17.072Z,1008.1
2017-08-07T01:39:17.885Z,1008.1
2017-08-07T01:40:18.711Z,1008.1
2017-08-07T01:41:19.509Z,1008.2
2017-08-07T01:42:20.264Z,1008.1
2017-08-07T01:43:21.279Z,1008.1
2017-08-07T01:44:22.020Z,1008.1
2017-08-07T01:45:22.822Z,1008.1
2017-08-07T01:46:23.535Z,1008.1
2017-08-07T01:47:24.282Z,1008.1
2017-08-07T01:48:25.089Z,1008.1
2017-08-07T01:49:25.893Z,1008.1
2017-08-07T01:50:26.920Z,1008.1
2017-08-07T01:51:27.671Z,1008.1
2017-08-07T01:52:28.471Z,1008.1
2017-08-07T01:53:29.295Z,1008.1
2017-08-07T01:54:30.028Z,1008.1
2017-08-07T01:55:31.234Z,1008.1
2017-08-07T01:56:32.034Z,1008.1
2017-08-07T01:57:32.768Z,1008.1
2017-08-07T01:58:33.506Z,1008.1
2017-08-07T01:59:34.263Z,1008.1
2017-08-07T02:00:35.050Z,1008.0
2017-08-07T02:01:35.781Z,1008.1
2017-08-07T02:02:37.043Z,1008.1
2017-08-07T02:03:37.771Z,1008.0
2017-08-07T02:04:38.512Z,1008.1
2017-08-07T02:05:39.245Z,1008.1
2017-08-07T02:06:39.971Z,1008.1
2017-08-07T02:07:40.928Z,1008.1
2017-08-07T02:08:41.656Z,1008.0
2017-08-07T02:09:42.392Z,1008.0
2017-08-07T02:10:43.204Z,1008.0
2017-08-07T02:11:44.000Z,1008.0
2017-08-07T02:12:45.092Z,1008.1
2017-08-07T02:13:45.827Z,1008.0
2017-08-07T02:14:46.571Z,1008.0
2017-08-07T02:15:47.299Z,1008.0
2017-08-07T02:16:48.100Z,1008.1
2017-08-07T02:17:49.187Z,1008.0
2017-08-07T02:18:49.937Z,1008.0
2017-08-07T02:19:50.709Z,1008.0
2017-08-07T02:20:51.440Z,1008.0
2017-08-07T02:21:52.171Z,1008.0
2017-08-07T02:22:53.311Z,1008.0
2017-08-07T02:23:54.045Z,1008.0
2017-08-07T02:24:54.791Z,1008.1
2017-08-07T02:25:55.527Z,1008.1
2017-08-07T02:26:56.340Z,1008.1
2017-08-07T02:27:57.422Z,1008.1
2017-08-07T02:28:58.157Z,1008.1
2017-08-07T02:29:58.903Z,1008.1
2017-08-07T02:30:59.733Z,1008.1
2017-08-07T02:32:00.530Z,1008.1
2017-08-07T02:33:01.283Z,1008.1
2017-08-07T02:34:02.024Z,1008.1
2017-08-07T02:35:09.023Z,1008.1
2017-08-07T02:36:09.764Z,1008.1
2017-08-07T02:37:10.578Z,1008.1
2017-08-07T02:38:11.706Z,1008.0
2017-08-07T02:39:12.517Z,1008.0
2017-08-07T02:40:13.338Z,1008.1
2017-08-07T02:41:14.130Z,1008.0
2017-08-07T02:42:14.869Z,1008.0
2017-08-07T02:43:16.027Z,1008.0
2017-08-07T02:44:16.749Z,1008.0
2017-08-07T02:45:17.493Z,1008.0
2017-08-07T02:46:18.302Z,1008.0
2017-08-07T02:47:19.048Z,1008.0
2017-08-07T02:48:20.128Z,1008.0
2017-08-07T02:49:20.871Z,1008.0
2017-08-07T02:50:21.676Z,1008.0
2017-08-07T02:51:22.411Z,1008.0
2017-08-07T02:52:23.175Z,1008.0
2017-08-07T02:53:24.152Z,1008.0
2017-08-07T02:54:24.937Z,1008.0
2017-08-07T02:55:25.682Z,1007.9
2017-08-07T02:56:26.431Z,1007.9
2017-08-07T02:57:27.241Z,1007.9
2017-08-07T02:58:28.339Z,1007.9
2017-08-07T02:59:29.167Z,1007.9
2017-08-07T03:00:29.970Z,1007.9
2017-08-07T03:01:30.780Z,1007.8
2017-08-07T03:02:31.562Z,1007.8
2017-08-07T03:03:32.309Z,1007.8
2017-08-07T03:04:33.149Z,1007.8
2017-08-07T03:05:34.205Z,1007.8
2017-08-07T03:06:34.941Z,1007.8
2017-08-07T03:07:35.716Z,1007.8
2017-08-07T03:08:36.518Z,1007.8
2017-08-07T03:09:37.250Z,1007.8
2017-08-07T03:10:38.048Z,1007.8
2017-08-07T03:11:39.130Z,1007.8
2017-08-07T03:12:39.939Z,1007.7
2017-08-07T03:13:40.665Z,1007.7
2017-08-07T03:14:41.389Z,1007.8
2017-08-07T03:15:42.121Z,1007.7
2017-08-07T03:16:43.169Z,1007.7
2017-08-07T03:17:43.902Z,1007.7
2017-08-07T03:18:44.641Z,1007.7
2017-08-07T03:19:45.436Z,1007.7
2017-08-07T03:20:46.215Z,1007.7
2017-08-07T03:21:47.347Z,1007.7
2017-08-07T03:22:48.173Z,1007.7
2017-08-07T03:23:48.912Z,1007.7
2017-08-07T03:24:49.705Z,1007.7
2017-08-07T03:25:50.442Z,1007.7
2017-08-07T03:26:51.478Z,1007.7
2017-08-07T03:27:52.217Z,1007.7
2017-08-07T03:28:52.956Z,1007.7
2017-08-07T03:29:53.777Z,1007.7
2017-08-07T03:30:54.508Z,1007.7
2017-08-07T03:31:55.550Z,1007.6
2017-08-07T03:32:56.362Z,1007.7
2017-08-07T03:33:57.082Z,1007.6
2017-08-07T03:34:57.813Z,1007.7
2017-08-07T03:35:58.568Z,1007.7
2017-08-07T03:36:59.661Z,1007.7
2017-08-07T03:38:00.421Z,1007.6
2017-08-07T03:39:01.189Z,1007.7
2017-08-07T03:40:02.014Z,1007.6
2017-08-07T03:41:02.731Z,1007.6
2017-08-07T03:42:03.953Z,1007.7
2017-08-07T03:43:04.681Z,1007.7
2017-08-07T03:44:05.416Z,1007.7
2017-08-07T03:45:06.175Z,1007.7
2017-08-07T03:46:06.913Z,1007.6
2017-08-07T03:47:07.716Z,1007.7
2017-08-07T03:48:08.479Z,1007.6
2017-08-07T03:49:09.282Z,1007.6
2017-08-07T03:50:10.023Z,1007.6
2017-08-07T03:51:10.755Z,1007.6
2017-08-07T03:52:11.895Z,1007.6
2017-08-07T03:53:12.711Z,1007.6
2017-08-07T03:54:13.507Z,1007.6
2017-08-07T03:55:14.249Z,1007.6
2017-08-07T03:56:14.966Z,1007.6
2017-08-07T03:57:15.987Z,1007.6
2017-08-07T03:58:16.810Z,1007.6
2017-08-07T03:59:17.534Z,1007.6
2017-08-07T04:00:18.268Z,1007.6
2017-08-07T04:01:19.026Z,1007.6
2017-08-07T04:02:20.170Z,1007.6
2017-08-07T04:03:20.866Z,1007.6
2017-08-07T04:04:21.603Z,1007.6
2017-08-07T04:05:22.423Z,1007.6
2017-08-07T04:06:23.148Z,1007.6
2017-08-07T04:07:24.236Z,1007.6
2017-08-07T04:08:24.977Z,1007.6
2017-08-07T04:09:25.711Z,1007.6
2017-08-07T04:10:26.437Z,1007.6
2017-08-07T04:11:27.201Z,1007.6
2017-08-07T04:12:28.139Z,1007.6
2017-08-07T04:13:28.882Z,1007.6
2017-08-07T04:14:29.612Z,1007.6
2017-08-07T04:15:30.352Z,1007.5
2017-08-07T04:16:31.149Z,1007.5
2017-08-07T04:17:32.085Z,1007.6
2017-08-07T04:18:32.899Z,1007.6
2017-08-07T04:19:33.702Z,1007.5
2017-08-07T04:20:34.440Z,1007.5
2017-08-07T04:21:35.181Z,1007.6
2017-08-07T04:22:36.162Z,1007.6
2017-08-07T04:23:36.960Z,1007.5
2017-08-07T04:24:37.799Z,1007.6
2017-08-07T04:25:38.531Z,1007.6
2017-08-07T04:26:39.312Z,1007.6
2017-08-07T04:27:40.046Z,1007.6
2017-08-07T04:28:40.851Z,1007.6
2017-08-07T04:29:41.670Z,1007.6
2017-08-07T04:30:42.465Z,1007.6
2017-08-07T04:31:43.497Z,1007.6
2017-08-07T04:32:44.242Z,1007.6
2017-08-07T04:33:45.060Z,1007.6
2017-08-07T04:34:45.869Z,1007.6
2017-08-07T04:35:46.662Z,1007.6
2017-08-07T04:36:47.742Z,1007.6
2017-08-07T04:37:48.485Z,1007.6
2017-08-07T04:38:49.306Z,1007.6
2017-08-07T04:39:50.091Z,1007.6
2017-08-07T04:40:50.831Z,1007.6
2017-08-07T04:41:51.928Z,1007.6
2017-08-07T04:42:52.697Z,1007.6
2017-08-07T04:43:53.429Z,1007.6
2017-08-07T04:44:54.162Z,1007.6
2017-08-07T04:45:54.900Z,1007.6
2017-08-07T04:46:55.895Z,1007.6
2017-08-07T04:47:56.636Z,1007.6
2017-08-07T04:48:57.389Z,1007.6
2017-08-07T04:49:58.116Z,1007.6
2017-08-07T04:50:58.941Z,1007.6
2017-08-07T04:52:00.111Z,1007.6
2017-08-07T04:53:00.901Z,1007.6
2017-08-07T04:54:01.628Z,1007.6
2017-08-07T04:55:02.372Z,1007.6
2017-08-07T04:56:03.136Z,1007.6
2017-08-07T04:57:04.274Z,1007.6
2017-08-07T04:58:05.085Z,1007.6
2017-08-07T04:59:05.901Z,1007.6
2017-08-07T05:00:06.629Z,1007.6
2017-08-07T05:01:07.415Z,1007.7
2017-08-07T05:02:08.512Z,1007.6
2017-08-07T05:03:09.251Z,1007.6
2017-08-07T05:04:10.092Z,1007.6
2017-08-07T05:05:10.826Z,1007.6
2017-08-07T05:06:11.571Z,1007.6
2017-08-07T05:07:12.731Z,1007.6
2017-08-07T05:08:13.529Z,1007.6
2017-08-07T05:09:14.361Z,1007.6
2017-08-07T05:10:15.097Z,1007.5
2017-08-07T05:11:15.838Z,1007.5
2017-08-07T05:12:17.065Z,1007.5
2017-08-07T05:13:17.796Z,1007.5
2017-08-07T05:14:18.548Z,1007.5
2017-08-07T05:15:19.285Z,1007.5
2017-08-07T05:16:20.088Z,1007.5
2017-08-07T05:17:21.075Z,1007.5
2017-08-07T05:18:21.882Z,1007.5
2017-08-07T05:19:22.618Z,1007.5
2017-08-07T05:20:23.403Z,1007.5
2017-08-07T05:21:24.222Z,1007.5
2017-08-07T05:22:25.428Z,1007.5
2017-08-07T05:23:26.151Z,1007.5
2017-08-07T05:24:26.897Z,1007.5
2017-08-07T05:25:27.646Z,1007.5
2017-08-07T05:26:28.395Z,1007.5
2017-08-07T05:27:29.555Z,1007.5
2017-08-07T05:28:30.292Z,1007.5
2017-08-07T05:29:31.027Z,1007.5
2017-08-07T05:30:31.804Z,1007.5
2017-08-07T05:31:32.516Z,1007.5
2017-08-07T05:32:33.654Z,1007.5
2017-08-07T05:33:34.461Z,1007.6
2017-08-07T05:34:35.205Z,1007.6
2017-08-07T05:35:35.989Z,1007.6
2017-08-07T05:36:37.060Z,1007.6
2017-08-07T05:37:38.190Z,1007.5
2017-08-07T05:38:38.930Z,1007.5
2017-08-07T05:39:39.662Z,1007.5
2017-08-07T05:40:40.412Z,1007.5
2017-08-07T05:41:41.226Z,1007.5
2017-08-07T05:42:42.035Z,1007.5
2017-08-07T05:43:42.848Z,1007.5
2017-08-07T05:44:43.970Z,1007.5
2017-08-07T05:45:44.752Z,1007.5
2017-08-07T05:46:45.577Z,1007.5
2017-08-07T05:47:46.307Z,1007.5
2017-08-07T05:48:47.081Z,1007.5
2017-08-07T05:49:48.120Z,1007.4
2017-08-07T05:50:48.940Z,1007.4
2017-08-07T05:51:49.762Z,1007.4
2017-08-07T05:52:50.516Z,1007.4
2017-08-07T05:53:51.330Z,1007.4
2017-08-07T05:54:52.068Z,1007.4
2017-08-07T05:55:53.207Z,1007.4
2017-08-07T05:56:53.946Z,1007.4
2017-08-07T05:57:54.693Z,1007.4
2017-08-07T05:58:55.430Z,1007.4
2017-08-07T05:59:56.239Z,1007.4
2017-08-07T06:00:57.362Z,1007.4
2017-08-07T06:01:58.108Z,1007.4
2017-08-07T06:02:58.850Z,1007.5
2017-08-07T06:03:59.587Z,1007.5
2017-08-07T06:05:00.322Z,1007.4
2017-08-07T06:06:01.073Z,1007.4
2017-08-07T06:07:01.810Z,1007.4
2017-08-07T06:08:02.855Z,1007.4
2017-08-07T06:09:03.628Z,1007.5
2017-08-07T06:10:04.358Z,1007.5
2017-08-07T06:11:05.101Z,1007.5
2017-08-07T06:12:05.855Z,1007.5
2017-08-07T06:13:06.990Z,1007.5
2017-08-07T06:14:07.732Z,1007.5
2017-08-07T06:15:08.477Z,1007.5
2017-08-07T06:16:09.217Z,1007.5
2017-08-07T06:17:09.953Z,1007.5
2017-08-07T06:18:11.051Z,1007.5
2017-08-07T06:19:11.796Z,1007.5
2017-08-07T06:20:12.600Z,1007.5
2017-08-07T06:21:13.328Z,1007.4
2017-08-07T06:22:14.077Z,1007.5
2017-08-07T06:23:15.003Z,1007.4
2017-08-07T06:24:15.756Z,1007.5
2017-08-07T06:25:16.563Z,1007.5
2017-08-07T06:26:17.313Z,1007.4
2017-08-07T06:27:18.119Z,1007.4
2017-08-07T06:28:19.158Z,1007.4
2017-08-07T06:29:19.902Z,1007.4
2017-08-07T06:30:20.721Z,1007.4
2017-08-07T06:31:21.542Z,1007.4
2017-08-07T06:32:22.278Z,1007.3
2017-08-07T06:33:23.379Z,1007.3
2017-08-07T06:34:24.118Z,1007.3
2017-08-07T06:35:24.853Z,1007.3
2017-08-07T06:36:25.587Z,1007.3
2017-08-07T06:37:26.326Z,1007.3
2017-08-07T06:38:27.431Z,1007.3
2017-08-07T06:39:28.183Z,1007.3
2017-08-07T06:40:28.973Z,1007.2
2017-08-07T06:41:29.726Z,1007.3
2017-08-07T06:42:30.546Z,1007.3
2017-08-07T06:43:31.538Z,1007.2
2017-08-07T06:44:32.268Z,1007.2
2017-08-07T06:45:33.016Z,1007.3
2017-08-07T06:46:33.751Z,1007.3
2017-08-07T06:47:34.562Z,1007.2
2017-08-07T06:48:35.548Z,1007.2
2017-08-07T06:49:36.287Z,1007.2
2017-08-07T06:50:37.109Z,1007.2
2017-08-07T06:51:37.927Z,1007.2
2017-08-07T06:52:38.668Z,1007.2
2017-08-07T06:53:39.828Z,1007.2
2017-08-07T06:54:40.567Z,1007.1
2017-08-07T06:55:41.303Z,1007.2
2017-08-07T06:56:42.060Z,1007.2
2017-08-07T06:57:42.870Z,1007.2
2017-08-07T06:58:43.862Z,1007.1
2017-08-07T06:59:44.688Z,1007.1
2017-08-07T07:00:45.422Z,1007.1
2017-08-07T07:01:46.153Z,1007.2
2017-08-07T07:02:46.912Z,1007.1
2017-08-07T07:03:47.964Z,1007.2
2017-08-07T07:04:48.704Z,1007.2
2017-08-07T07:05:49.441Z,1007.2
2017-08-07T07:06:50.178Z,1007.2
2017-08-07T07:07:50.915Z,1007.2
2017-08-07T07:08:51.849Z,1007.1
2017-08-07T07:09:52.662Z,1007.1
2017-08-07T07:10:53.393Z,1007.1
2017-08-07T07:11:54.122Z,1007.1
2017-08-07T07:12:54.953Z,1007.1
2017-08-07T07:13:56.168Z,1007.1
2017-08-07T07:14:56.904Z,1007.1
2017-08-07T07:15:57.680Z,1007.1
2017-08-07T07:16:58.421Z,1007.1
2017-08-07T07:17:59.171Z,1007.1
2017-08-07T07:19:00.221Z,1007.2
2017-08-07T07:20:00.962Z,1007.1
2017-08-07T07:21:01.702Z,1007.2
2017-08-07T07:22:02.507Z,1007.1
2017-08-07T07:23:03.299Z,1007.1
2017-08-07T07:24:04.408Z,1007.1
2017-08-07T07:25:05.179Z,1007.1
2017-08-07T07:26:06.022Z,1007.1
2017-08-07T07:27:06.723Z,1007.2
2017-08-07T07:28:07.471Z,1007.1
2017-08-07T07:29:08.557Z,1007.1
2017-08-07T07:30:09.309Z,1007.1
2017-08-07T07:31:10.058Z,1007.1
2017-08-07T07:32:10.800Z,1007.1
2017-08-07T07:33:11.540Z,1007.1
2017-08-07T07:34:12.579Z,1007.1
2017-08-07T07:35:13.414Z,1007.1
2017-08-07T07:36:14.152Z,1007.1
2017-08-07T07:37:14.894Z,1007.1
2017-08-07T07:38:15.632Z,1007.1
2017-08-07T07:39:16.828Z,1007.1
2017-08-07T07:40:17.581Z,1007.1
2017-08-07T07:41:18.354Z,1007.1
2017-08-07T07:42:19.099Z,1007.1
2017-08-07T07:43:19.932Z,1007.0
2017-08-07T07:44:21.105Z,1007.0
2017-08-07T07:45:21.837Z,1007.0
2017-08-07T07:46:22.596Z,1007.0
2017-08-07T07:47:23.440Z,1007.1
2017-08-07T07:48:24.243Z,1007.1
2017-08-07T07:49:25.360Z,1007.1
2017-08-07T07:50:26.124Z,1007.0
2017-08-07T07:51:26.872Z,1007.0
2017-08-07T07:52:27.695Z,1007.0
2017-08-07T07:53:28.438Z,1007.0
2017-08-07T07:54:29.484Z,1007.1
2017-08-07T07:55:30.224Z,1007.1
2017-08-07T07:56:31.060Z,1007.0
2017-08-07T07:57:31.882Z,1007.0
2017-08-07T07:58:32.684Z,1007.0
2017-08-07T07:59:33.896Z,1007.1
2017-08-07T08:00:35.486Z,1007.1
2017-08-07T08:01:36.523Z,1007.0
2017-08-07T08:02:37.353Z,1007.1
2017-08-07T08:03:38.168Z,1007.1
2017-08-07T08:04:39.508Z,1007.1
2017-08-07T08:05:40.296Z,1007.0
2017-08-07T08:06:41.094Z,1007.0
2017-08-07T08:07:41.935Z,1007.0
2017-08-07T08:08:42.683Z,1007.0
2017-08-07T08:09:43.910Z,1007.0
2017-08-07T08:10:44.653Z,1007.0
2017-08-07T08:11:45.481Z,1006.9
2017-08-07T08:12:46.222Z,1006.9
2017-08-07T08:13:46.962Z,1006.9
2017-08-07T08:14:48.110Z,1006.9
2017-08-07T08:15:48.877Z,1006.8
2017-08-07T08:16:49.648Z,1006.9
2017-08-07T08:17:50.431Z,1006.9
2017-08-07T08:18:51.150Z,1006.9
2017-08-07T08:19:51.962Z,1006.9
2017-08-07T08:20:53.099Z,1006.9
2017-08-07T08:21:53.843Z,1006.8
2017-08-07T08:22:54.590Z,1006.9
2017-08-07T08:23:55.334Z,1006.8
2017-08-07T08:24:56.082Z,1006.8
2017-08-07T08:25:57.083Z,1006.8
2017-08-07T08:26:57.826Z,1006.9
2017-08-07T08:27:58.566Z,1006.9
2017-08-07T08:28:59.310Z,1006.8
2017-08-07T08:30:00.051Z,1006.9
2017-08-07T08:31:01.138Z,1006.9
2017-08-07T08:32:01.891Z,1006.8
2017-08-07T08:33:02.645Z,1006.9
2017-08-07T08:34:03.426Z,1006.8
2017-08-07T08:35:04.178Z,1006.8
2017-08-07T08:36:05.329Z,1006.8
2017-08-07T08:37:06.135Z,1006.8
2017-08-07T08:38:06.951Z,1006.8
2017-08-07T08:39:07.769Z,1006.8
2017-08-07T08:40:08.517Z,1006.8
2017-08-07T08:41:09.265Z,1006.8
2017-08-07T08:42:10.019Z,1006.8
2017-08-07T08:43:10.756Z,1006.8
2017-08-07T08:44:11.512Z,1006.8
2017-08-07T08:45:12.566Z,1006.8
2017-08-07T08:46:13.379Z,1006.8
2017-08-07T08:47:14.213Z,1006.7
2017-08-07T08:48:15.163Z,1006.8
2017-08-07T08:49:15.954Z,1006.8
2017-08-07T08:50:17.189Z,1006.7
2017-08-07T08:51:18.006Z,1006.7
2017-08-07T08:52:18.771Z,1006.7
2017-08-07T08:53:19.535Z,1006.7
2017-08-07T08:54:20.302Z,1006.7
2017-08-07T08:55:21.449Z,1006.7
2017-08-07T08:56:22.587Z,1006.7
2017-08-07T08:57:23.389Z,1006.7
2017-08-07T08:58:24.141Z,1006.7
2017-08-07T08:59:24.962Z,1006.7
2017-08-07T09:00:26.124Z,1006.7
2017-08-07T09:01:26.871Z,1006.7
2017-08-07T09:02:27.693Z,1006.7
2017-08-07T09:03:28.438Z,1006.7
2017-08-07T09:04:29.192Z,1006.7
2017-08-07T09:05:29.948Z,1006.7
2017-08-07T09:06:31.045Z,1006.6
2017-08-07T09:07:31.847Z,1006.7
2017-08-07T09:08:32.641Z,1006.7
2017-08-07T09:09:33.373Z,1006.7
2017-08-07T09:10:34.197Z,1006.7
2017-08-07T09:11:35.444Z,1006.7
2017-08-07T09:12:36.159Z,1006.7
2017-08-07T09:13:36.960Z,1006.7
2017-08-07T09:14:37.748Z,1006.6
2017-08-07T09:15:38.577Z,1006.7
2017-08-07T09:16:39.776Z,1006.7
2017-08-07T09:17:40.499Z,1006.7
2017-08-07T09:18:41.315Z,1006.7
2017-08-07T09:19:42.076Z,1006.7
2017-08-07T09:20:42.888Z,1006.6
2017-08-07T09:21:44.159Z,1006.6
2017-08-07T09:22:44.983Z,1006.6
2017-08-07T09:23:45.730Z,1006.6
2017-08-07T09:24:46.480Z,1006.6
2017-08-07T09:25:47.228Z,1006.6
2017-08-07T09:26:47.979Z,1006.6
2017-08-07T09:27:48.790Z,1006.6
2017-08-07T09:28:49.622Z,1006.6
2017-08-07T09:29:50.742Z,1006.6
2017-08-07T09:30:51.488Z,1006.5
2017-08-07T09:31:52.304Z,1006.6
2017-08-07T09:32:53.108Z,1006.5
2017-08-07T09:33:53.873Z,1006.5
2017-08-07T09:34:54.705Z,1006.5
2017-08-07T09:35:55.859Z,1006.5
2017-08-07T09:36:56.696Z,1006.5
2017-08-07T09:37:57.532Z,1006.5
2017-08-07T09:38:58.353Z,1006.5
2017-08-07T09:39:59.081Z,1006.5
2017-08-07T09:41:00.229Z,1006.5
2017-08-07T09:42:00.976Z,1006.5
2017-08-07T09:43:01.721Z,1006.5
2017-08-07T09:44:02.515Z,1006.5
2017-08-07T09:45:03.265Z,1006.4
2017-08-07T09:46:04.052Z,1006.5
2017-08-07T09:47:05.108Z,1006.4
2017-08-07T09:48:06.006Z,1006.4
2017-08-07T09:49:06.748Z,1006.4
2017-08-07T09:50:08.242Z,1006.4
2017-08-07T09:51:09.061Z,1006.4
2017-08-07T09:52:10.745Z,1006.4
2017-08-07T09:53:11.802Z,1006.4
2017-08-07T09:54:12.558Z,1006.4
2017-08-07T09:55:13.330Z,1006.4
2017-08-07T09:56:14.154Z,1006.4
2017-08-07T09:57:14.908Z,1006.3
2017-08-07T09:58:15.735Z,1006.3
2017-08-07T09:59:16.983Z,1006.3
2017-08-07T10:00:17.749Z,1006.3
2017-08-07T10:01:18.544Z,1006.3
2017-08-07T10:02:19.288Z,1006.3
2017-08-07T10:03:20.148Z,1006.3
2017-08-07T10:04:21.246Z,1006.2
2017-08-07T10:05:22.007Z,1006.3
2017-08-07T10:06:22.876Z,1006.3
2017-08-07T10:07:23.669Z,1006.3
2017-08-07T10:08:24.482Z,1006.4
2017-08-07T10:09:25.470Z,1006.4
2017-08-07T10:10:26.238Z,1006.3
2017-08-07T10:11:27.059Z,1006.3
2017-08-07T10:12:27.812Z,1006.3
2017-08-07T10:13:28.549Z,1006.3
2017-08-07T10:14:29.702Z,1006.3
2017-08-07T10:15:30.452Z,1006.3
2017-08-07T10:16:31.205Z,1006.3
2017-08-07T10:17:32.042Z,1006.2
2017-08-07T10:18:32.794Z,1006.2
2017-08-07T10:19:33.959Z,1006.2
2017-08-07T10:20:34.714Z,1006.2
2017-08-07T10:21:35.973Z,1006.2
2017-08-07T10:22:36.709Z,1006.2
2017-08-07T10:23:37.458Z,1006.2
2017-08-07T10:24:38.272Z,1006.2
2017-08-07T10:25:39.079Z,1006.2
2017-08-07T10:26:40.217Z,1006.2
2017-08-07T10:27:40.960Z,1006.2
2017-08-07T10:28:41.720Z,1006.2
2017-08-07T10:29:42.484Z,1006.2
2017-08-07T10:30:43.297Z,1006.2
2017-08-07T10:31:44.284Z,1006.2
2017-08-07T10:32:45.047Z,1006.1
2017-08-07T10:33:45.863Z,1006.2
2017-08-07T10:34:46.691Z,1006.2
2017-08-07T10:35:47.438Z,1006.2
2017-08-07T10:36:48.575Z,1006.2
2017-08-07T10:37:49.320Z,1006.1
2017-08-07T10:38:50.070Z,1006.1
2017-08-07T10:39:50.898Z,1006.2
2017-08-07T10:40:51.729Z,1006.1
2017-08-07T10:41:52.835Z,1006.2
2017-08-07T10:42:53.580Z,1006.1
2017-08-07T10:43:54.329Z,1006.1
2017-08-07T10:44:55.081Z,1006.0
2017-08-07T10:45:55.825Z,1006.0
2017-08-07T10:46:56.902Z,1005.9
2017-08-07T10:47:57.652Z,1006.1
2017-08-07T10:48:58.479Z,1006.1
2017-08-07T10:49:59.292Z,1006.1
2017-08-07T10:51:00.040Z,1006.0
2017-08-07T10:52:01.001Z,1006.0
2017-08-07T10:53:01.740Z,1005.9
2017-08-07T10:54:02.517Z,1006.0
2017-08-07T10:55:03.337Z,1006.0
2017-08-07T10:56:04.190Z,1006.0
2017-08-07T10:57:05.349Z,1006.0
2017-08-07T10:58:06.161Z,1005.9
2017-08-07T10:59:06.903Z,1006.0
2017-08-07T11:00:07.738Z,1006.0
2017-08-07T11:01:08.507Z,1006.0
2017-08-07T11:02:09.647Z,1006.0
2017-08-07T11:03:10.397Z,1005.9
2017-08-07T11:04:11.140Z,1005.9
2017-08-07T11:05:11.904Z,1005.9
2017-08-07T11:06:12.613Z,1006.0
2017-08-07T11:07:13.431Z,1006.0
2017-08-07T11:08:14.196Z,1005.9
2017-08-07T11:09:14.930Z,1005.9
2017-08-07T11:10:15.758Z,1005.9
2017-08-07T11:11:16.602Z,1005.9
2017-08-07T11:12:17.862Z,1006.0
2017-08-07T11:13:18.628Z,1005.8
2017-08-07T11:14:19.370Z,1005.9
2017-08-07T11:15:20.442Z,1005.9
2017-08-07T11:16:21.167Z,1005.8
2017-08-07T11:17:22.369Z,1005.9
2017-08-07T11:18:23.122Z,1005.9
2017-08-07T11:19:24.350Z,1005.9
2017-08-07T11:20:25.064Z,1005.9
2017-08-07T11:21:25.890Z,1005.9
2017-08-07T11:22:26.964Z,1005.8
2017-08-07T11:23:27.810Z,1005.8
2017-08-07T11:24:28.838Z,1005.8
2017-08-07T11:25:29.654Z,1005.9
2017-08-07T11:26:30.500Z,1005.7
2017-08-07T11:27:31.501Z,1005.7
2017-08-07T11:28:32.250Z,1005.8
2017-08-07T11:29:33.005Z,1005.7
2017-08-07T11:30:33.840Z,1005.7
2017-08-07T11:31:34.597Z,1005.6
2017-08-07T11:32:35.701Z,1005.7
2017-08-07T11:33:36.569Z,1005.6
2017-08-07T11:34:37.413Z,1005.6
2017-08-07T11:35:38.228Z,1005.6
2017-08-07T11:36:38.997Z,1005.6
2017-08-07T11:37:40.103Z,1005.6
2017-08-07T11:38:40.936Z,1005.6
2017-08-07T11:39:41.775Z,1005.6
2017-08-07T11:40:42.733Z,1005.5
2017-08-07T11:41:43.557Z,1005.5
2017-08-07T11:42:44.311Z,1005.5
2017-08-07T11:43:45.135Z,1005.5
2017-08-07T11:44:45.971Z,1005.5
2017-08-07T11:45:47.066Z,1005.5
2017-08-07T11:46:47.811Z,1005.5
2017-08-07T11:47:48.558Z,1005.5
2017-08-07T11:48:49.381Z,1005.5
2017-08-07T11:49:50.187Z,1005.5
2017-08-07T11:50:51.270Z,1005.5
2017-08-07T11:51:52.027Z,1005.5
2017-08-07T11:52:52.767Z,1005.4
2017-08-07T11:53:53.524Z,1005.5
2017-08-07T11:54:54.338Z,1005.5
2017-08-07T11:55:55.096Z,1005.4
2017-08-07T11:56:55.922Z,1005.4
2017-08-07T11:57:56.709Z,1005.4
2017-08-07T11:58:57.653Z,1005.4
2017-08-07T11:59:58.472Z,1005.4
2017-08-07T12:00:59.234Z,1005.3
2017-08-07T12:02:00.062Z,1005.3
2017-08-07T12:03:00.815Z,1005.3
2017-08-07T12:04:01.976Z,1005.3
2017-08-07T12:05:02.723Z,1005.3
2017-08-07T12:06:03.493Z,1005.3
2017-08-07T12:07:04.291Z,1005.3
2017-08-07T12:08:05.036Z,1005.3
2017-08-07T12:09:06.085Z,1005.3
2017-08-07T12:10:06.916Z,1005.3
2017-08-07T12:11:07.671Z,1005.3
2017-08-07T12:12:08.499Z,1005.3
2017-08-07T12:13:09.251Z,1005.2
2017-08-07T12:14:10.358Z,1005.2
2017-08-07T12:15:11.176Z,1005.3
2017-08-07T12:16:11.938Z,1005.3
2017-08-07T12:17:12.674Z,1005.3
2017-08-07T12:18:13.440Z,1005.3
2017-08-07T12:19:14.585Z,1005.3
2017-08-07T12:20:15.356Z,1005.3
2017-08-07T12:21:16.182Z,1005.3
2017-08-07T12:22:16.937Z,1005.3
2017-08-07T12:23:17.762Z,1005.2
2017-08-07T12:24:18.889Z,1005.2
2017-08-07T12:25:19.651Z,1005.2
2017-08-07T12:26:20.390Z,1005.2
2017-08-07T12:27:21.150Z,1005.2
2017-08-07T12:28:21.896Z,1005.2
2017-08-07T12:29:23.009Z,1005.2
2017-08-07T12:30:23.821Z,1005.2
2017-08-07T12:31:24.566Z,1005.2
2017-08-07T12:32:25.706Z,1005.2
2017-08-07T12:33:26.411Z,1005.1
2017-08-07T12:34:27.607Z,1005.1
2017-08-07T12:35:28.343Z,1005.2
2017-08-07T12:36:29.086Z,1005.1
2017-08-07T12:37:29.890Z,1005.0
2017-08-07T12:38:30.683Z,1005.1
2017-08-07T12:39:31.901Z,1005.1